CheckWX is a tool to help pilots better visualize weather data.  It is not intended as a substitute for an official pre-flight weather briefing.

01:31:49 UTC

PAMR METAR
Merrill Field Airport
Anchorage, Alaska, USA
Current

39 mins ago

PAMR 190053Z 02021G32KT CLR 19/M05 A2995 RMK AO2 PK WND 03033/0032 SLP141 T01941050 $
Observed
Aug-19 @ 00:53 UTC
Wind
  • 020° at 21 KTS
  • Gusting to 32 KTS
Visibility
Cloud Levels
  • Clear skies
Temperature
19°C / 66°F
Dewpoint
-5°C / 23°F
Humidity
19%
Altimeter
29.95" Hg
Pressure
1014.22 hPa
Previous

2 hours ago

PAMR 182353Z 03020G34KT 10SM CLR 20/M06 A2996 RMK AO2 PK WND 03034/2351 SLP147 60000 T02001056 10200 20156 58012 $
Observed
Aug-18 @ 23:53 UTC
Wind
  • 030° at 20 KTS
  • Gusting to 34 KTS
Visibility
10 SM
Flight Rules
VFR
Cloud Levels
  • Clear skies
Temperature
20°C / 68°F
Dewpoint
-6°C / 21°F
Humidity
17%
Altimeter
29.96" Hg
Pressure
1014.52 hPa
Previous

3 hours ago

PAMR 182253Z 02019G32KT 10SM CLR 19/M05 A2998 RMK AO2 PK WND 02032/2201 SLP152 T01941050 $
Observed
Aug-18 @ 22:53 UTC
Wind
  • 020° at 19 KTS
  • Gusting to 32 KTS
Visibility
10 SM
Flight Rules
VFR
Cloud Levels
  • Clear skies
Temperature
19°C / 66°F
Dewpoint
-5°C / 23°F
Humidity
19%
Altimeter
29.98" Hg
Pressure
1015.22 hPa